sensor_id;sensor_type;location;lat;lon;timestamp;pressure;altitude;pressure_sealevel;temperature;humidity
29197;BME280;62796;42.654;23.316;2023-05-20T00:00:26;94864.34;;;14.83;58.92
29197;BME280;62796;42.654;23.316;2023-05-20T00:02:51;94887.44;;;15.00;58.93
29197;BME280;62796;42.654;23.316;2023-05-20T00:05:17;94888.97;;;15.01;59.09
29197;BME280;62796;42.654;23.316;2023-05-20T00:07:42;94878.81;;;15.04;58.80
29197;BME280;62796;42.654;23.316;2023-05-20T00:10:08;94877.81;;;14.95;59.23
29197;BME280;62796;42.654;23.316;2023-05-20T00:12:34;94866.38;;;14.82;59.17
29197;BME280;62796;42.654;23.316;2023-05-20T00:15:00;94856.25;;;14.79;59.54
29197;BME280;62796;42.654;23.316;2023-05-20T00:17:25;94850.41;;;14.83;59.47
29197;BME280;62796;42.654;23.316;2023-05-20T00:19:52;94875.75;;;14.85;59.44
29197;BME280;62796;42.654;23.316;2023-05-20T00:22:18;94894.28;;;14.93;59.48
29197;BME280;62796;42.654;23.316;2023-05-20T00:24:44;94888.22;;;14.89;59.59
29197;BME280;62796;42.654;23.316;2023-05-20T00:27:09;94891.22;;;14.80;59.95
29197;BME280;62796;42.654;23.316;2023-05-20T00:29:34;94883.34;;;14.68;59.97
29197;BME280;62796;42.654;23.316;2023-05-20T00:32:00;94877.00;;;14.67;59.90
29197;BME280;62796;42.654;23.316;2023-05-20T00:34:25;94874.75;;;14.71;59.70
29197;BME280;62796;42.654;23.316;2023-05-20T00:36:51;94851.84;;;14.39;60.35
29197;BME280;62796;42.654;23.316;2023-05-20T00:39:16;94851.59;;;14.37;59.97
29197;BME280;62796;42.654;23.316;2023-05-20T00:41:41;94845.53;;;14.39;59.84
29197;BME280;62796;42.654;23.316;2023-05-20T00:44:07;94839.69;;;14.43;59.55
29197;BME280;62796;42.654;23.316;2023-05-20T00:46:33;94830.59;;;14.36;59.51
29197;BME280;62796;42.654;23.316;2023-05-20T00:48:59;94864.28;;;14.50;59.85
29197;BME280;62796;42.654;23.316;2023-05-20T00:51:25;94847.03;;;14.40;59.93
29197;BME280;62796;42.654;23.316;2023-05-20T00:53:51;94834.38;;;14.39;59.59
29197;BME280;62796;42.654;23.316;2023-05-20T00:56:17;94854.94;;;14.53;59.91
29197;BME280;62796;42.654;23.316;2023-05-20T00:58:43;94825.25;;;14.33;59.97
29197;BME280;62796;42.654;23.316;2023-05-20T01:01:08;94848.59;;;14.52;60.04
29197;BME280;62796;42.654;23.316;2023-05-20T01:03:34;94819.19;;;14.40;59.88
29197;BME280;62796;42.654;23.316;2023-05-20T01:06:01;94825.75;;;14.37;59.90
29197;BME280;62796;42.654;23.316;2023-05-20T01:08:27;94856.22;;;14.57;59.81
29197;BME280;62796;42.654;23.316;2023-05-20T01:11:10;94859.50;;;14.56;59.60
29197;BME280;62796;42.654;23.316;2023-05-20T01:13:47;94828.28;;;14.35;59.18
29197;BME280;62796;42.654;23.316;2023-05-20T01:16:16;94836.91;;;14.37;59.23
29197;BME280;62796;42.654;23.316;2023-05-20T01:18:42;94840.41;;;14.32;59.32
29197;BME280;62796;42.654;23.316;2023-05-20T01:21:10;94840.41;;;14.32;59.06
29197;BME280;62796;42.654;23.316;2023-05-20T01:23:40;94836.84;;;14.26;59.34
29197;BME280;62796;42.654;23.316;2023-05-20T01:26:06;94849.00;;;14.23;59.60
29197;BME280;62796;42.654;23.316;2023-05-20T01:28:33;94841.94;;;14.27;59.81
29197;BME280;62796;42.654;23.316;2023-05-20T01:31:01;94848.50;;;14.24;60.15
29197;BME280;62796;42.654;23.316;2023-05-20T01:33:30;94844.44;;;14.20;60.17
29197;BME280;62796;42.654;23.316;2023-05-20T01:35:56;94851.78;;;14.28;60.26
29197;BME280;62796;42.654;23.316;2023-05-20T01:38:23;94836.03;;;14.09;60.49
29197;BME280;62796;42.654;23.316;2023-05-20T01:40:50;94851.00;;;14.17;60.67
29197;BME280;62796;42.654;23.316;2023-05-20T01:43:16;94844.91;;;14.13;60.70
29197;BME280;62796;42.654;23.316;2023-05-20T01:45:43;94861.38;;;14.22;60.32
29197;BME280;62796;42.654;23.316;2023-05-20T01:48:09;94856.81;;;14.19;60.42
29197;BME280;62796;42.654;23.316;2023-05-20T01:50:36;94838.53;;;14.07;60.43
29197;BME280;62796;42.654;23.316;2023-05-20T01:53:01;94825.13;;;14.05;60.44
29197;BME280;62796;42.654;23.316;2023-05-20T01:55:27;94833.75;;;14.13;60.33
29197;BME280;62796;42.654;23.316;2023-05-20T01:57:52;94831.72;;;14.08;60.18
29197;BME280;62796;42.654;23.316;2023-05-20T02:00:18;94820.84;;;14.10;60.38
29197;BME280;62796;42.654;23.316;2023-05-20T02:02:43;94822.13;;;14.09;60.13
29197;BME280;62796;42.654;23.316;2023-05-20T02:05:09;94819.06;;;14.07;60.00
29197;BME280;62796;42.654;23.316;2023-05-20T02:07:34;94822.34;;;14.00;60.03
29197;BME280;62796;42.654;23.316;2023-05-20T02:10:00;94831.97;;;14.04;59.93
29197;BME280;62796;42.654;23.316;2023-05-20T02:12:25;94815.75;;;13.97;60.02
29197;BME280;62796;42.654;23.316;2023-05-20T02:14:51;94829.97;;;14.10;59.92
29197;BME280;62796;42.654;23.316;2023-05-20T02:17:16;94848.47;;;14.19;60.08
29197;BME280;62796;42.654;23.316;2023-05-20T02:19:43;94841.63;;;14.20;59.66
29197;BME280;62796;42.654;23.316;2023-05-20T02:22:09;94835.03;;;14.12;59.85
29197;BME280;62796;42.654;23.316;2023-05-20T02:24:35;94856.03;;;14.13;60.10
29197;BME280;62796;42.654;23.316;2023-05-20T02:27:00;94844.13;;;14.07;60.21
29197;BME280;62796;42.654;23.316;2023-05-20T02:29:27;94820.56;;;13.97;60.29
29197;BME280;62796;42.654;23.316;2023-05-20T02:31:52;94808.41;;;13.94;60.05
29197;BME280;62796;42.654;23.316;2023-05-20T02:34:19;94819.56;;;14.00;60.51
29197;BME280;62796;42.654;23.316;2023-05-20T02:36:45;94817.97;;;13.88;60.66
29197;BME280;62796;42.654;23.316;2023-05-20T02:39:10;94807.06;;;13.78;60.89
29197;BME280;62796;42.654;23.316;2023-05-20T02:41:36;94838.53;;;14.01;60.87
29197;BME280;62796;42.654;23.316;2023-05-20T02:44:02;94809.84;;;13.78;61.19
29197;BME280;62796;42.654;23.316;2023-05-20T02:46:27;94839.25;;;13.91;61.04
29197;BME280;62796;42.654;23.316;2023-05-20T02:48:53;94816.41;;;13.75;61.17
29197;BME280;62796;42.654;23.316;2023-05-20T02:51:18;94844.28;;;13.86;61.16
29197;BME280;62796;42.654;23.316;2023-05-20T02:53:43;94808.03;;;13.70;61.20
29197;BME280;62796;42.654;23.316;2023-05-20T02:56:09;94807.03;;;13.73;61.16
29197;BME280;62796;42.654;23.316;2023-05-20T02:58:35;94835.47;;;13.88;61.31
29197;BME280;62796;42.654;23.316;2023-05-20T03:01:01;94834.13;;;13.72;61.18
29197;BME280;62796;42.654;23.316;2023-05-20T03:03:27;94814.38;;;13.70;61.16
29197;BME280;62796;42.654;23.316;2023-05-20T03:05:53;94827.56;;;13.75;61.03
29197;BME280;62796;42.654;23.316;2023-05-20T03:08:20;94827.78;;;13.72;61.25
29197;BME280;62796;42.654;23.316;2023-05-20T03:10:46;94847.56;;;13.79;61.38
29197;BME280;62796;42.654;23.316;2023-05-20T03:13:12;94817.38;;;13.61;61.53
29197;BME280;62796;42.654;23.316;2023-05-20T03:15:40;94837.91;;;13.69;61.43
29197;BME280;62796;42.654;23.316;2023-05-20T03:18:06;94858.41;;;13.77;61.16
29197;BME280;62796;42.654;23.316;2023-05-20T03:20:35;94825.91;;;13.52;61.39
29197;BME280;62796;42.654;23.316;2023-05-20T03:23:05;94858.66;;;13.74;61.22
29197;BME280;62796;42.654;23.316;2023-05-20T03:25:30;94868.28;;;13.73;61.00
29197;BME280;62796;42.654;23.316;2023-05-20T03:27:56;94849.22;;;13.60;60.92
29197;BME280;62796;42.654;23.316;2023-05-20T03:30:25;94834.53;;;13.54;60.89
29197;BME280;62796;42.654;23.316;2023-05-20T03:32:52;94867.53;;;13.78;60.58
29197;BME280;62796;42.654;23.316;2023-05-20T03:35:18;94870.09;;;13.81;60.61
29197;BME280;62796;42.654;23.316;2023-05-20T03:37:43;94847.25;;;13.66;60.50
29197;BME280;62796;42.654;23.316;2023-05-20T03:40:09;94852.06;;;13.71;60.38
29197;BME280;62796;42.654;23.316;2023-05-20T03:42:35;94876.72;;;13.90;60.55
29197;BME280;62796;42.654;23.316;2023-05-20T03:45:01;94863.53;;;13.84;60.65
29197;BME280;62796;42.654;23.316;2023-05-20T03:47:27;94853.34;;;13.70;60.63
29197;BME280;62796;42.654;23.316;2023-05-20T03:49:52;94854.38;;;13.73;61.04
29197;BME280;62796;42.654;23.316;2023-05-20T03:52:18;94855.88;;;13.74;60.81
29197;BME280;62796;42.654;23.316;2023-05-20T03:54:43;94858.41;;;13.77;60.77
29197;BME280;62796;42.654;23.316;2023-05-20T03:57:09;94853.88;;;13.80;61.05
29197;BME280;62796;42.654;23.316;2023-05-20T03:59:35;94878.28;;;14.02;60.86
29197;BME280;62796;42.654;23.316;2023-05-20T04:02:01;94874.72;;;13.96;60.84
29197;BME280;62796;42.654;23.316;2023-05-20T04:04:26;94884.63;;;14.08;60.97
29197;BME280;62796;42.654;23.316;2023-05-20T04:06:52;94874.25;;;14.03;61.04
29197;BME280;62796;42.654;23.316;2023-05-20T04:09:18;94885.97;;;14.18;60.63
29197;BME280;62796;42.654;23.316;2023-05-20T04:11:44;94878.31;;;14.13;60.88
29197;BME280;62796;42.654;23.316;2023-05-20T04:14:09;94893.09;;;14.30;60.93
29197;BME280;62796;42.654;23.316;2023-05-20T04:16:35;94893.16;;;14.35;61.01
29197;BME280;62796;42.654;23.316;2023-05-20T04:19:02;94901.53;;;14.47;60.56
29197;BME280;62796;42.654;23.316;2023-05-20T04:21:27;94883.53;;;14.42;60.39
29197;BME280;62796;42.654;23.316;2023-05-20T04:23:53;94887.59;;;14.52;60.22
29197;BME280;62796;42.654;23.316;2023-05-20T04:26:18;94902.38;;;14.69;60.20
29197;BME280;62796;42.654;23.316;2023-05-20T04:28:45;94866.09;;;14.58;59.75
29197;BME280;62796;42.654;23.316;2023-05-20T04:31:13;94897.56;;;14.81;59.45
29197;BME280;62796;42.654;23.316;2023-05-20T04:33:39;94896.56;;;14.95;58.95
29197;BME280;62796;42.654;23.316;2023-05-20T04:36:06;94869.44;;;14.95;58.39
29197;BME280;62796;42.654;23.316;2023-05-20T04:38:32;94878.06;;;15.14;58.09
29197;BME280;62796;42.654;23.316;2023-05-20T04:40:58;94886.69;;;15.22;58.00
29197;BME280;62796;42.654;23.316;2023-05-20T04:43:27;94876.28;;;15.28;57.59
29197;BME280;62796;42.654;23.316;2023-05-20T04:45:54;94874.75;;;15.32;57.47
29197;BME280;62796;42.654;23.316;2023-05-20T04:48:20;94900.91;;;15.57;57.21
29197;BME280;62796;42.654;23.316;2023-05-20T04:50:47;94879.84;;;15.50;56.99
29197;BME280;62796;42.654;23.316;2023-05-20T04:53:16;94880.84;;;15.70;56.23
29197;BME280;62796;42.654;23.316;2023-05-20T04:55:42;94906.94;;;15.94;56.28
29197;BME280;62796;42.654;23.316;2023-05-20T04:58:08;94906.91;;;16.05;56.15
29197;BME280;62796;42.654;23.316;2023-05-20T05:00:40;94865.28;;;15.96;55.96
29197;BME280;62796;42.654;23.316;2023-05-20T05:03:06;94876.41;;;16.08;55.60
29197;BME280;62796;42.654;23.316;2023-05-20T05:05:34;94898.66;;;16.41;54.86
29197;BME280;62796;42.654;23.316;2023-05-20T05:08:00;94880.09;;;16.38;54.45
29197;BME280;62796;42.654;23.316;2023-05-20T05:10:25;94878.78;;;16.50;54.27
29197;BME280;62796;42.654;23.316;2023-05-20T05:12:50;94900.03;;;16.75;54.33
29197;BME280;62796;42.654;23.316;2023-05-20T05:15:16;94879.72;;;16.69;54.44
29197;BME280;62796;42.654;23.316;2023-05-20T05:17:42;94888.28;;;16.82;54.25
29197;BME280;62796;42.654;23.316;2023-05-20T05:20:07;94894.78;;;17.01;53.88
29197;BME280;62796;42.654;23.316;2023-05-20T05:22:33;94884.81;;;17.06;53.93
29197;BME280;62796;42.654;23.316;2023-05-20T05:25:02;94905.97;;;17.37;53.51
29197;BME280;62796;42.654;23.316;2023-05-20T05:27:27;94901.25;;;17.50;53.64
29197;BME280;62796;42.654;23.316;2023-05-20T05:29:53;94898.88;;;17.65;53.17
29197;BME280;62796;42.654;23.316;2023-05-20T05:32:18;94876.50;;;17.60;53.01
29197;BME280;62796;42.654;23.316;2023-05-20T05:34:44;94869.31;;;17.70;53.10
29197;BME280;62796;42.654;23.316;2023-05-20T05:37:09;94887.59;;;18.01;52.68
29197;BME280;62796;42.654;23.316;2023-05-20T05:39:35;94885.22;;;18.05;52.43
29197;BME280;62796;42.654;23.316;2023-05-20T05:42:02;94879.69;;;17.99;52.20
29197;BME280;62796;42.654;23.316;2023-05-20T05:44:28;94879.44;;;18.21;50.55
29197;BME280;62796;42.654;23.316;2023-05-20T05:46:53;94891.44;;;18.41;49.86
29197;BME280;62796;42.654;23.316;2023-05-20T05:49:19;94878.72;;;18.40;49.71
29197;BME280;62796;42.654;23.316;2023-05-20T05:51:44;94891.78;;;18.56;50.06
29197;BME280;62796;42.654;23.316;2023-05-20T05:54:10;94859.97;;;18.53;49.20
29197;BME280;62796;42.654;23.316;2023-05-20T05:56:35;94865.28;;;18.57;48.95
29197;BME280;62796;42.654;23.316;2023-05-20T05:59:00;94886.78;;;18.67;49.28
29197;BME280;62796;42.654;23.316;2023-05-20T06:01:26;94893.00;;;18.79;48.75
29197;BME280;62796;42.654;23.316;2023-05-20T06:03:52;94875.09;;;18.82;47.73
29197;BME280;62796;42.654;23.316;2023-05-20T06:06:17;94883.91;;;18.73;48.97
29197;BME280;62796;42.654;23.316;2023-05-20T06:08:43;94885.66;;;18.95;48.91
29197;BME280;62796;42.654;23.316;2023-05-20T06:11:08;94863.50;;;18.91;48.98
29197;BME280;62796;42.654;23.316;2023-05-20T06:13:35;94881.25;;;18.99;49.05
29197;BME280;62796;42.654;23.316;2023-05-20T06:16:00;94854.19;;;18.83;48.95
29197;BME280;62796;42.654;23.316;2023-05-20T06:18:26;94853.63;;;19.03;48.38
29197;BME280;62796;42.654;23.316;2023-05-20T06:20:58;94848.06;;;19.16;48.49
29197;BME280;62796;42.654;23.316;2023-05-20T06:23:24;94852.44;;;19.30;47.93
29197;BME280;62796;42.654;23.316;2023-05-20T06:25:50;94846.69;;;19.55;46.37
29197;BME280;62796;42.654;23.316;2023-05-20T06:28:16;94852.34;;;19.81;45.25
29197;BME280;62796;42.654;23.316;2023-05-20T06:30:41;94866.00;;;20.03;44.22
29197;BME280;62796;42.654;23.316;2023-05-20T06:33:07;94844.03;;;20.02;44.60
29197;BME280;62796;42.654;23.316;2023-05-20T06:35:32;94855.09;;;20.39;44.00
29197;BME280;62796;42.654;23.316;2023-05-20T06:38:01;94830.31;;;20.24;43.96
29197;BME280;62796;42.654;23.316;2023-05-20T06:40:27;94826.22;;;20.38;44.34
29197;BME280;62796;42.654;23.316;2023-05-20T06:42:53;94837.19;;;20.63;42.97
29197;BME280;62796;42.654;23.316;2023-05-20T06:45:18;94820.41;;;20.70;42.08
29197;BME280;62796;42.654;23.316;2023-05-20T06:47:44;94827.59;;;20.92;41.90
29197;BME280;62796;42.654;23.316;2023-05-20T06:50:10;94833.13;;;21.18;40.97
29197;BME280;62796;42.654;23.316;2023-05-20T06:52:36;94841.53;;;21.31;41.25
29197;BME280;62796;42.654;23.316;2023-05-20T06:55:02;94826.56;;;21.36;38.70
29197;BME280;62796;42.654;23.316;2023-05-20T06:57:28;94831.28;;;21.41;38.75
29197;BME280;62796;42.654;23.316;2023-05-20T06:59:53;94823.34;;;21.32;38.78
29197;BME280;62796;42.654;23.316;2023-05-20T07:02:20;94837.75;;;21.49;38.46
29197;BME280;62796;42.654;23.316;2023-05-20T07:04:45;94839.69;;;21.55;37.81
29197;BME280;62796;42.654;23.316;2023-05-20T07:07:11;94853.81;;;21.83;38.04
29197;BME280;62796;42.654;23.316;2023-05-20T07:09:36;94839.03;;;21.90;38.22
29197;BME280;62796;42.654;23.316;2023-05-20T07:12:02;94821.44;;;21.97;36.87
29197;BME280;62796;42.654;23.316;2023-05-20T07:14:27;94818.13;;;21.85;36.59
29197;BME280;62796;42.654;23.316;2023-05-20T07:16:53;94819.63;;;21.86;36.83
29197;BME280;62796;42.654;23.316;2023-05-20T07:19:18;94842.22;;;22.15;36.15
29197;BME280;62796;42.654;23.316;2023-05-20T07:21:44;94830.78;;;22.20;35.43
29197;BME280;62796;42.654;23.316;2023-05-20T07:24:09;94824.03;;;22.23;35.63
29197;BME280;62796;42.654;23.316;2023-05-20T07:26:35;94844.88;;;22.48;35.56
29197;BME280;62796;42.654;23.316;2023-05-20T07:29:02;94823.41;;;22.45;36.21
29197;BME280;62796;42.654;23.316;2023-05-20T07:31:28;94828.56;;;22.62;35.01
29197;BME280;62796;42.654;23.316;2023-05-20T07:33:53;94837.16;;;22.92;34.48
29197;BME280;62796;42.654;23.316;2023-05-20T07:36:18;94847.94;;;23.01;34.10
29197;BME280;62796;42.654;23.316;2023-05-20T07:38:44;94830.03;;;23.06;34.31
29197;BME280;62796;42.654;23.316;2023-05-20T07:41:09;94835.34;;;23.10;34.71
29197;BME280;62796;42.654;23.316;2023-05-20T07:43:35;94830.44;;;23.18;34.00
29197;BME280;62796;42.654;23.316;2023-05-20T07:46:01;94839.84;;;23.13;34.36
29197;BME280;62796;42.654;23.316;2023-05-20T07:48:26;94831.91;;;23.04;34.63
29197;BME280;62796;42.654;23.316;2023-05-20T07:50:52;94834.25;;;23.21;34.72
29197;BME280;62796;42.654;23.316;2023-05-20T07:53:17;94823.66;;;23.21;33.65
29197;BME280;62796;42.654;23.316;2023-05-20T07:55:43;94835.81;;;23.52;33.59
29197;BME280;62796;42.654;23.316;2023-05-20T07:58:08;94825.25;;;23.67;31.84
29197;BME280;62796;42.654;23.316;2023-05-20T08:00:34;94828.28;;;23.69;32.55
29197;BME280;62796;42.654;23.316;2023-05-20T08:03:00;94828.25;;;24.00;31.58
29197;BME280;62796;42.654;23.316;2023-05-20T08:05:25;94836.94;;;24.17;32.04
29197;BME280;62796;42.654;23.316;2023-05-20T08:07:50;94817.34;;;24.19;32.01
29197;BME280;62796;42.654;23.316;2023-05-20T08:10:16;94818.03;;;24.35;31.64
29197;BME280;62796;42.654;23.316;2023-05-20T08:12:42;94827.81;;;24.49;31.10
29197;BME280;62796;42.654;23.316;2023-05-20T08:15:07;94824.72;;;24.69;31.82
29197;BME280;62796;42.654;23.316;2023-05-20T08:17:33;94802.06;;;24.69;31.21
29197;BME280;62796;42.654;23.316;2023-05-20T08:19:59;94834.50;;;24.84;30.85
29197;BME280;62796;42.654;23.316;2023-05-20T08:22:26;94825.44;;;24.85;30.35
29197;BME280;62796;42.654;23.316;2023-05-20T08:24:51;94810.78;;;24.64;31.01
29197;BME280;62796;42.654;23.316;2023-05-20T08:27:17;94799.63;;;24.58;31.56
29197;BME280;62796;42.654;23.316;2023-05-20T08:29:43;94814.84;;;24.93;31.01
29197;BME280;62796;42.654;23.316;2023-05-20T08:32:09;94803.13;;;24.89;31.27
29197;BME280;62796;42.654;23.316;2023-05-20T08:34:34;94800.34;;;24.82;31.18
29197;BME280;62796;42.654;23.316;2023-05-20T08:37:01;94817.00;;;24.70;31.65
29197;BME280;62796;42.654;23.316;2023-05-20T08:39:27;94801.59;;;24.96;30.85
29197;BME280;62796;42.654;23.316;2023-05-20T08:41:52;94800.44;;;24.99;30.70
29197;BME280;62796;42.654;23.316;2023-05-20T08:44:18;94802.50;;;25.06;30.90
29197;BME280;62796;42.654;23.316;2023-05-20T08:46:46;94794.41;;;24.95;30.55
29197;BME280;62796;42.654;23.316;2023-05-20T08:49:11;94805.22;;;25.21;30.38
29197;BME280;62796;42.654;23.316;2023-05-20T08:51:38;94797.66;;;25.23;30.26
29197;BME280;62796;42.654;23.316;2023-05-20T08:54:03;94825.31;;;25.40;30.54
29197;BME280;62796;42.654;23.316;2023-05-20T08:56:31;94809.09;;;25.33;30.50
29197;BME280;62796;42.654;23.316;2023-05-20T08:58:58;94828.88;;;25.48;30.53
29197;BME280;62796;42.654;23.316;2023-05-20T09:01:23;94826.94;;;25.58;29.22
29197;BME280;62796;42.654;23.316;2023-05-20T09:03:52;94813.09;;;25.30;29.71
29197;BME280;62796;42.654;23.316;2023-05-20T09:06:17;94810.09;;;25.28;30.61
29197;BME280;62796;42.654;23.316;2023-05-20T09:08:48;94807.34;;;25.13;30.87
29197;BME280;62796;42.654;23.316;2023-05-20T09:11:15;94809.34;;;25.27;31.08
29197;BME280;62796;42.654;23.316;2023-05-20T09:13:41;94786.53;;;25.43;28.78
29197;BME280;62796;42.654;23.316;2023-05-20T09:16:09;94803.13;;;25.54;29.20
29197;BME280;62796;42.654;23.316;2023-05-20T09:18:38;94777.84;;;25.48;29.19
29197;BME280;62796;42.654;23.316;2023-05-20T09:21:04;94792.22;;;25.50;29.41
29197;BME280;62796;42.654;23.316;2023-05-20T09:23:36;94793.78;;;25.36;30.61
29197;BME280;62796;42.654;23.316;2023-05-20T09:26:02;94778.31;;;25.62;30.27
29197;BME280;62796;42.654;23.316;2023-05-20T09:28:28;94776.97;;;25.63;29.99
29197;BME280;62796;42.654;23.316;2023-05-20T09:30:58;94760.25;;;25.74;30.47
29197;BME280;62796;42.654;23.316;2023-05-20T09:33:29;94784.94;;;25.57;31.13
29197;BME280;62796;42.654;23.316;2023-05-20T09:36:03;94779.31;;;25.24;31.92
29197;BME280;62796;42.654;23.316;2023-05-20T09:38:30;94783.97;;;25.62;31.26
29197;BME280;62796;42.654;23.316;2023-05-20T09:41:07;94776.31;;;25.72;30.99
29197;BME280;62796;42.654;23.316;2023-05-20T09:43:34;94764.84;;;25.13;31.63
29197;BME280;62796;42.654;23.316;2023-05-20T09:46:01;94778.41;;;25.47;30.76
29197;BME280;62796;42.654;23.316;2023-05-20T09:48:27;94755.34;;;25.18;30.95
29197;BME280;62796;42.654;23.316;2023-05-20T09:50:55;94752.69;;;25.20;30.48
29197;BME280;62796;42.654;23.316;2023-05-20T09:53:24;94772.75;;;25.71;30.62
29197;BME280;62796;42.654;23.316;2023-05-20T09:55:51;94754.09;;;25.85;29.39
29197;BME280;62796;42.654;23.316;2023-05-20T09:58:19;94743.94;;;25.75;29.23
29197;BME280;62796;42.654;23.316;2023-05-20T10:00:44;94747.41;;;25.91;29.25
29197;BME280;62796;42.654;23.316;2023-05-20T10:03:11;94765.16;;;26.33;29.26
29197;BME280;62796;42.654;23.316;2023-05-20T10:05:50;94741.34;;;26.46;28.94
29197;BME280;62796;42.654;23.316;2023-05-20T10:19:00;94737.06;;;25.85;29.12
29197;BME280;62796;42.654;23.316;2023-05-20T10:21:31;94727.38;;;26.06;28.73
29197;BME280;62796;42.654;23.316;2023-05-20T10:24:08;94735.25;;;26.15;29.33
29197;BME280;62796;42.654;23.316;2023-05-20T10:26:36;94709.38;;;26.28;28.24
29197;BME280;62796;42.654;23.316;2023-05-20T10:29:01;94730.56;;;26.44;28.47
29197;BME280;62796;42.654;23.316;2023-05-20T10:31:43;94727.13;;;26.63;28.29
29197;BME280;62796;42.654;23.316;2023-05-20T10:34:14;94679.81;;;25.79;27.07
29197;BME280;62796;42.654;23.316;2023-05-20T10:37:05;94705.84;;;25.68;27.43
29197;BME280;62796;42.654;23.316;2023-05-20T10:39:30;94712.84;;;25.84;27.14
29197;BME280;62796;42.654;23.316;2023-05-20T10:42:09;94708.53;;;26.18;26.42
29197;BME280;62796;42.654;23.316;2023-05-20T10:44:46;94701.09;;;26.22;26.05
29197;BME280;62796;42.654;23.316;2023-05-20T10:47:12;94683.50;;;26.24;26.90
29197;BME280;62796;42.654;23.316;2023-05-20T10:49:45;94685.47;;;26.14;27.04
29197;BME280;62796;42.654;23.316;2023-05-20T10:52:12;94682.47;;;25.95;26.15
29197;BME280;62796;42.654;23.316;2023-05-20T10:54:55;94674.94;;;25.90;26.01
29197;BME280;62796;42.654;23.316;2023-05-20T10:57:22;94699.66;;;26.14;25.79
29197;BME280;62796;42.654;23.316;2023-05-20T10:59:48;94686.97;;;26.32;26.31
29197;BME280;62796;42.654;23.316;2023-05-20T11:02:16;94694.81;;;26.41;26.22
29197;BME280;62796;42.654;23.316;2023-05-20T11:04:42;94693.78;;;26.63;26.73
29197;BME280;62796;42.654;23.316;2023-05-20T11:07:08;94669.00;;;26.47;26.28
29197;BME280;62796;42.654;23.316;2023-05-20T11:09:33;94672.88;;;26.24;26.42
29197;BME280;62796;42.654;23.316;2023-05-20T11:11:59;94662.88;;;25.89;26.47
29197;BME280;62796;42.654;23.316;2023-05-20T11:14:27;94678.47;;;25.80;26.50
29197;BME280;62796;42.654;23.316;2023-05-20T11:16:55;94658.53;;;25.71;26.60
29197;BME280;62796;42.654;23.316;2023-05-20T11:19:21;94636.50;;;25.79;26.49
29197;BME280;62796;42.654;23.316;2023-05-20T11:21:47;94645.22;;;26.08;26.25
29197;BME280;62796;42.654;23.316;2023-05-20T11:24:13;94668.16;;;25.51;28.47
29197;BME280;62796;42.654;23.316;2023-05-20T11:26:39;94641.28;;;25.10;29.26
29197;BME280;62796;42.654;23.316;2023-05-20T11:29:04;94637.72;;;24.77;29.63
29197;BME280;62796;42.654;23.316;2023-05-20T11:31:30;94658.66;;;25.14;30.10
29197;BME280;62796;42.654;23.316;2023-05-20T11:33:58;94657.50;;;25.17;30.18
29197;BME280;62796;42.654;23.316;2023-05-20T11:36:26;94627.97;;;24.70;30.55
29197;BME280;62796;42.654;23.316;2023-05-20T11:38:53;94638.13;;;24.81;30.51
29197;BME280;62796;42.654;23.316;2023-05-20T11:41:23;94634.78;;;24.67;29.30
29197;BME280;62796;42.654;23.316;2023-05-20T11:43:55;94646.00;;;24.58;29.09
29197;BME280;62796;42.654;23.316;2023-05-20T11:46:22;94623.22;;;24.48;29.66
29197;BME280;62796;42.654;23.316;2023-05-20T11:48:54;94612.31;;;24.37;30.48
29197;BME280;62796;42.654;23.316;2023-05-20T11:51:26;94614.28;;;24.27;30.61
29197;BME280;62796;42.654;23.316;2023-05-20T11:53:58;94615.88;;;24.13;30.75
29197;BME280;62796;42.654;23.316;2023-05-20T11:56:23;94615.47;;;24.09;31.42
29197;BME280;62796;42.654;23.316;2023-05-20T11:58:49;94607.47;;;23.83;31.75
29197;BME280;62796;42.654;23.316;2023-05-20T12:01:14;94599.09;;;23.52;32.92
29197;BME280;62796;42.654;23.316;2023-05-20T12:03:40;94622.69;;;23.47;33.05
29197;BME280;62796;42.654;23.316;2023-05-20T12:06:05;94634.47;;;23.68;33.02
29197;BME280;62796;42.654;23.316;2023-05-20T12:08:31;94607.00;;;23.54;32.82
29197;BME280;62796;42.654;23.316;2023-05-20T12:10:56;94629.22;;;23.65;32.61
29197;BME280;62796;42.654;23.316;2023-05-20T12:13:22;94612.69;;;23.46;32.52
29197;BME280;62796;42.654;23.316;2023-05-20T12:15:48;94608.34;;;23.38;33.13
29197;BME280;62796;42.654;23.316;2023-05-20T12:18:13;94631.16;;;23.47;33.06
29197;BME280;62796;42.654;23.316;2023-05-20T12:20:39;94626.22;;;23.33;33.06
29197;BME280;62796;42.654;23.316;2023-05-20T12:23:04;94635.28;;;23.31;33.42
29197;BME280;62796;42.654;23.316;2023-05-20T12:25:30;94637.19;;;23.21;33.45
29197;BME280;62796;42.654;23.316;2023-05-20T12:27:55;94639.44;;;23.00;33.67
29197;BME280;62796;42.654;23.316;2023-05-20T12:30:22;94646.03;;;22.80;34.22
29197;BME280;62796;42.654;23.316;2023-05-20T12:32:49;94675.53;;;22.48;33.90
29197;BME280;62796;42.654;23.316;2023-05-20T12:35:15;94664.81;;;21.96;34.22
29197;BME280;62796;42.654;23.316;2023-05-20T12:37:42;94683.84;;;21.75;35.07
29197;BME280;62796;42.654;23.316;2023-05-20T12:40:09;94701.06;;;21.64;36.31
29197;BME280;62796;42.654;23.316;2023-05-20T12:42:40;94689.94;;;21.30;36.85
29197;BME280;62796;42.654;23.316;2023-05-20T12:45:06;94681.94;;;21.13;36.87
29197;BME280;62796;42.654;23.316;2023-05-20T12:47:33;94662.44;;;20.74;37.76
29197;BME280;62796;42.654;23.316;2023-05-20T12:49:59;94710.16;;;20.79;38.36
29197;BME280;62796;42.654;23.316;2023-05-20T12:52:25;94659.63;;;20.53;38.52
29197;BME280;62796;42.654;23.316;2023-05-20T12:54:53;94689.00;;;20.65;38.50
29197;BME280;62796;42.654;23.316;2023-05-20T12:57:18;94691.81;;;20.65;38.52